createdAt,value
2022-12-20T00:01:29.668Z,98402.16
2022-12-20T00:03:59.652Z,98396.00
2022-12-20T00:06:27.362Z,98396.47
2022-12-20T00:08:57.348Z,98387.34
2022-12-20T00:11:25.921Z,98373.94
2022-12-20T00:13:53.740Z,98377.19
2022-12-20T00:16:23.741Z,98384.34
2022-12-20T00:18:56.598Z,98381.81
2022-12-20T00:21:24.596Z,98366.91
2022-12-20T00:23:52.750Z,98371.44
2022-12-20T00:26:23.192Z,98363.44
2022-12-20T00:28:51.592Z,98350.09
2022-12-20T00:31:22.069Z,98356.13
2022-12-20T00:33:51.498Z,98346.56
2022-12-20T00:36:20.220Z,98338.75
2022-12-20T00:38:50.005Z,98340.84
2022-12-20T00:41:29.983Z,98330.84
2022-12-20T00:43:57.952Z,98319.47
2022-12-20T00:46:26.022Z,98313.75
2022-12-20T00:48:54.886Z,98304.19
2022-12-20T00:51:25.994Z,98302.28
2022-12-20T00:53:54.560Z,98304.19
2022-12-20T00:56:22.795Z,98301.47
2022-12-20T00:58:50.473Z,98302.81
2022-12-20T01:01:22.456Z,98301.91
2022-12-20T01:03:50.809Z,98309.16
2022-12-20T01:06:19.546Z,98301.91
2022-12-20T01:08:47.456Z,98302.28
2022-12-20T01:11:18.233Z,98302.78
2022-12-20T01:13:48.571Z,98297.53
2022-12-20T01:16:28.112Z,98304.16
2022-12-20T01:18:56.479Z,98302.47
2022-12-20T01:21:27.273Z,98308.09
2022-12-20T01:23:55.556Z,98300.22
2022-12-20T01:26:25.809Z,98317.09
2022-12-20T01:28:56.643Z,98304.16
2022-12-20T01:31:28.430Z,98307.22
2022-12-20T01:33:56.620Z,98311.94
2022-12-20T01:36:28.511Z,98310.50
2022-12-20T01:38:59.314Z,98311.63
2022-12-20T01:41:29.075Z,98309.00
2022-12-20T01:43:59.555Z,98310.34
2022-12-20T01:46:30.636Z,98316.78
2022-12-20T01:49:20.201Z,98312.88
2022-12-20T01:51:52.504Z,98314.22
2022-12-20T01:54:26.586Z,98304.56
2022-12-20T01:57:04.371Z,98316.34
2022-12-20T01:59:35.630Z,98322.84
2022-12-20T02:02:07.661Z,98315.56
2022-12-20T02:04:36.453Z,98322.31
2022-12-20T02:07:06.366Z,98315.41
2022-12-20T02:09:36.165Z,98317.94
2022-12-20T02:12:15.152Z,98309.84
2022-12-20T02:15:05.723Z,98301.94
2022-12-20T02:17:52.214Z,98306.72
2022-12-20T02:20:51.643Z,98311.75
2022-12-20T02:23:40.185Z,98309.13
2022-12-20T02:26:07.779Z,98306.03
2022-12-20T02:29:13.998Z,98298.63
2022-12-20T02:31:52.062Z,98307.84
2022-12-20T02:34:25.125Z,98304.56
2022-12-20T02:36:53.278Z,98308.91
2022-12-20T02:39:26.133Z,98309.34
2022-12-20T02:41:58.728Z,98314.38
2022-12-20T02:44:47.691Z,98311.97
2022-12-20T02:47:24.275Z,98306.19
2022-12-20T02:49:53.915Z,98290.84
2022-12-20T02:52:26.842Z,98288.56
2022-12-20T02:54:55.348Z,98266.09
2022-12-20T02:57:29.762Z,98284.00
2022-12-20T03:00:18.389Z,98278.91
2022-12-20T03:03:06.897Z,98274.84
2022-12-20T03:05:43.350Z,98271.41
2022-12-20T03:08:12.041Z,98274.53
2022-12-20T03:10:39.737Z,98271.47
2022-12-20T03:13:07.571Z,98270.66
2022-12-20T03:15:37.337Z,98275.28
2022-12-20T03:18:05.176Z,98268.06
2022-12-20T03:20:32.883Z,98274.81
2022-12-20T03:23:00.602Z,98277.19
2022-12-20T03:25:28.962Z,98276.69
2022-12-20T03:27:57.886Z,98277.19
2022-12-20T03:30:27.025Z,98273.06
2022-12-20T03:32:54.625Z,98269.63
2022-12-20T03:35:22.145Z,98265.03
2022-12-20T03:37:49.895Z,98268.50
2022-12-20T03:40:17.653Z,98256.84
2022-12-20T03:42:45.736Z,98264.56
2022-12-20T03:45:13.297Z,98264.94
2022-12-20T03:47:41.015Z,98270.38
2022-12-20T03:50:09.461Z,98269.25
2022-12-20T03:52:38.479Z,98268.25
2022-12-20T03:55:06.691Z,98267.28
2022-12-20T03:57:40.678Z,98265.47
2022-12-20T04:00:21.360Z,98264.34
2022-12-20T04:02:53.012Z,98255.69
2022-12-20T04:05:21.542Z,98260.94
2022-12-20T04:07:49.065Z,98262.25
2022-12-20T04:10:16.910Z,98259.94
2022-12-20T04:12:44.546Z,98252.81
2022-12-20T04:15:14.542Z,98259.16
2022-12-20T04:17:44.206Z,98261.31
2022-12-20T04:20:21.283Z,98269.03
2022-12-20T04:22:56.796Z,98261.50
2022-12-20T04:25:24.553Z,98260.38
2022-12-20T04:27:55.480Z,98260.38
2022-12-20T04:30:23.126Z,98259.31
2022-12-20T04:32:54.817Z,98265.38
2022-12-20T04:35:23.398Z,98258.47
2022-12-20T04:37:51.109Z,98265.88
2022-12-20T04:40:19.328Z,98263.72
2022-12-20T04:42:49.691Z,98258.94
2022-12-20T04:45:18.138Z,98258.78
2022-12-20T04:47:46.520Z,98270.94
2022-12-20T04:50:17.290Z,98261.41
2022-12-20T04:53:04.063Z,98257.19
2022-12-20T04:55:37.581Z,98267.84
2022-12-20T04:58:07.817Z,98253.38
2022-12-20T05:00:38.444Z,98259.75
2022-12-20T05:03:22.756Z,98256.16
2022-12-20T05:05:50.577Z,98255.84
2022-12-20T05:08:18.547Z,98259.13
2022-12-20T05:11:50.058Z,98246.69
2022-12-20T05:14:17.706Z,98239.44
2022-12-20T05:16:45.479Z,98235.38
2022-12-20T05:19:12.985Z,98237.94
2022-12-20T05:22:00.397Z,98235.94
2022-12-20T05:24:46.391Z,98228.38
2022-12-20T05:27:29.347Z,98229.34
2022-12-20T05:29:57.502Z,98230.81
2022-12-20T05:32:26.007Z,98233.13
2022-12-20T05:34:54.969Z,98230.34
2022-12-20T05:37:22.918Z,98224.91
2022-12-20T05:39:51.060Z,98231.75
2022-12-20T05:42:22.306Z,98235.03
2022-12-20T05:44:52.715Z,98229.28
2022-12-20T05:47:22.479Z,98229.59
2022-12-20T05:49:57.701Z,98209.72
2022-12-20T05:52:26.121Z,98224.81
2022-12-20T05:54:53.595Z,98217.03
2022-12-20T05:57:24.575Z,98219.50
2022-12-20T05:59:52.140Z,98214.72
2022-12-20T06:02:24.458Z,98217.19
2022-12-20T06:05:00.300Z,98215.34
2022-12-20T06:07:31.969Z,98214.88
2022-12-20T06:10:00.994Z,98211.06
2022-12-20T06:12:50.477Z,98209.47
2022-12-20T06:15:18.585Z,98214.94
2022-12-20T06:17:46.338Z,98206.41
2022-12-20T06:20:14.172Z,98206.91
2022-12-20T06:22:45.357Z,98198.72
2022-12-20T06:25:15.487Z,98196.91
2022-12-20T06:27:43.310Z,98202.16
2022-12-20T06:30:17.204Z,98207.72
2022-12-20T06:32:59.170Z,98209.22
2022-12-20T06:35:26.980Z,98209.72
2022-12-20T06:37:57.234Z,98208.91
2022-12-20T06:40:24.992Z,98204.97
2022-12-20T06:42:52.656Z,98212.84
2022-12-20T06:45:23.878Z,98211.53
2022-12-20T06:47:53.221Z,98219.28
2022-12-20T06:50:22.437Z,98226.03
2022-12-20T06:52:50.064Z,98234.22
2022-12-20T06:55:17.803Z,98223.34
2022-12-20T06:57:46.307Z,98228.91
2022-12-20T07:00:15.220Z,98224.59
2022-12-20T07:02:42.934Z,98221.31
2022-12-20T07:05:10.534Z,98217.88
2022-12-20T07:07:44.543Z,98205.72
2022-12-20T07:10:13.069Z,98209.38
2022-12-20T07:12:47.468Z,98208.41
2022-12-20T07:15:17.059Z,98209.53
2022-12-20T07:17:45.006Z,98207.06
2022-12-20T07:20:13.965Z,98220.84
2022-12-20T07:22:42.007Z,98216.09
2022-12-20T07:25:10.268Z,98217.09
2022-12-20T07:27:37.845Z,98203.47
2022-12-20T07:30:06.119Z,98192.47
2022-12-20T07:32:33.657Z,98192.47
2022-12-20T07:35:01.712Z,98203.47
2022-12-20T07:37:30.487Z,98219.41
2022-12-20T07:39:58.126Z,98209.72
2022-12-20T07:42:33.671Z,98214.00
2022-12-20T07:45:04.137Z,98221.66
2022-12-20T07:47:31.676Z,98205.47
2022-12-20T07:49:59.258Z,98194.66
2022-12-20T07:52:29.297Z,98203.50
2022-12-20T07:55:02.827Z,98186.94
2022-12-20T07:57:36.000Z,98197.50
2022-12-20T08:00:05.292Z,98208.34
2022-12-20T08:02:44.753Z,98225.13
2022-12-20T08:05:12.798Z,98234.47
2022-12-20T08:07:42.750Z,98236.44
2022-12-20T08:10:13.440Z,98243.19
2022-12-20T08:12:42.119Z,98233.03
2022-12-20T08:15:10.067Z,98223.25
2022-12-20T08:17:37.747Z,98220.41
2022-12-20T08:20:07.015Z,98202.84
2022-12-20T08:22:35.554Z,98220.72
2022-12-20T08:25:03.177Z,98222.09
2022-12-20T08:27:30.857Z,98243.72
2022-12-20T08:29:58.417Z,98225.81
2022-12-20T08:32:26.357Z,98216.22
2022-12-20T08:34:54.026Z,98218.38
2022-12-20T08:37:21.763Z,98221.38
2022-12-20T08:39:49.215Z,98219.41
2022-12-20T08:42:16.789Z,98224.00
2022-12-20T08:44:44.694Z,98231.00
2022-12-20T08:47:12.361Z,98225.13
2022-12-20T08:49:45.701Z,98210.38
2022-12-20T08:52:15.515Z,98226.94
2022-12-20T08:54:43.049Z,98220.03
2022-12-20T08:57:10.819Z,98216.75
2022-12-20T08:59:38.423Z,98214.69
2022-12-20T09:02:06.979Z,98209.19
2022-12-20T09:04:34.612Z,98209.03
2022-12-20T09:07:02.267Z,98210.56
2022-12-20T09:09:30.016Z,98209.88
2022-12-20T09:11:57.655Z,98209.28
2022-12-20T09:14:25.116Z,98215.72
2022-12-20T09:16:52.818Z,98201.13
2022-12-20T09:19:20.333Z,98213.00
2022-12-20T09:21:47.953Z,98224.16
2022-12-20T09:24:15.514Z,98217.63
2022-12-20T09:26:43.264Z,98209.75
2022-12-20T09:29:13.368Z,98207.78
2022-12-20T09:31:41.544Z,98219.44
2022-12-20T09:34:10.242Z,98215.34
2022-12-20T09:36:38.447Z,98211.09
2022-12-20T09:39:05.962Z,98209.59
2022-12-20T09:41:38.348Z,98211.56
2022-12-20T09:44:12.207Z,98225.22
2022-12-20T09:46:41.224Z,98222.94
2022-12-20T09:49:15.941Z,98225.88
2022-12-20T09:52:07.766Z,98219.28
2022-12-20T09:55:06.187Z,98208.09
2022-12-20T09:57:52.316Z,98245.22
2022-12-20T10:00:20.983Z,98244.25
2022-12-20T10:03:15.577Z,98251.78
2022-12-20T10:05:49.341Z,98232.28
2022-12-20T10:08:39.928Z,98236.06
2022-12-20T10:11:17.589Z,98230.31
2022-12-20T10:13:59.108Z,98234.09
2022-12-20T10:17:04.709Z,98234.41
2022-12-20T10:19:44.201Z,98238.19
2022-12-20T10:22:20.442Z,98228.84
2022-12-20T10:25:18.688Z,98227.50
2022-12-20T10:27:49.685Z,98211.53
2022-12-20T10:30:21.305Z,98201.53
2022-12-20T10:32:54.982Z,98210.41
2022-12-20T10:35:37.163Z,98221.09
2022-12-20T10:38:12.769Z,98222.19
2022-12-20T10:43:46.249Z,98239.13
2022-12-20T10:46:17.093Z,98231.25
2022-12-20T10:48:47.896Z,98220.25
2022-12-20T10:51:18.938Z,98209.75
2022-12-20T10:54:01.496Z,98198.13
2022-12-20T10:56:31.191Z,98193.53
2022-12-20T10:59:01.375Z,98192.09
2022-12-20T11:01:33.706Z,98176.13
2022-12-20T11:04:06.778Z,98172.84
2022-12-20T11:06:37.413Z,98173.03
2022-12-20T11:09:28.475Z,98153.16
2022-12-20T11:12:13.431Z,98155.16
2022-12-20T11:14:43.090Z,98156.66
2022-12-20T11:17:14.298Z,98151.06
2022-12-20T11:19:53.763Z,98143.72
2022-12-20T11:22:48.644Z,98148.47
2022-12-20T11:25:39.649Z,98132.03
2022-12-20T11:28:23.668Z,98113.63
2022-12-20T11:31:18.643Z,98107.88
2022-12-20T11:34:14.453Z,98106.75
2022-12-20T11:36:44.595Z,98085.56
2022-12-20T11:39:39.015Z,98084.75
2022-12-20T11:42:29.208Z,98095.59
2022-12-20T11:45:13.835Z,98101.81
2022-12-20T11:47:48.883Z,98096.56
2022-12-20T11:50:40.114Z,98105.88
2022-12-20T11:53:36.867Z,98096.66
2022-12-20T11:56:14.203Z,98083.69
2022-12-20T11:59:01.833Z,98094.66
2022-12-20T12:01:41.147Z,98108.94
2022-12-20T12:04:17.199Z,98106.34
2022-12-20T12:06:50.082Z,98115.09
2022-12-20T12:09:39.022Z,98110.19
2022-12-20T12:12:17.980Z,98100.34
2022-12-20T12:15:19.120Z,98119.22
2022-12-20T12:17:52.626Z,98115.28
2022-12-20T12:20:48.906Z,98123.81
2022-12-20T12:23:19.441Z,98115.25
2022-12-20T12:25:47.120Z,98106.34
2022-12-20T12:28:15.570Z,98101.63
2022-12-20T12:30:54.787Z,98074.03
2022-12-20T12:33:38.102Z,98070.09
2022-12-20T12:36:15.743Z,98068.09
2022-12-20T12:38:45.922Z,98058.41
2022-12-20T12:41:26.770Z,98058.69
2022-12-20T12:43:57.936Z,98025.03
2022-12-20T12:46:33.370Z,98033.72
2022-12-20T12:49:11.099Z,98016.84
2022-12-20T12:51:43.276Z,98021.44
2022-12-20T12:54:29.473Z,98046.59
2022-12-20T12:57:10.612Z,98040.06
2022-12-20T12:59:38.705Z,98029.22
2022-12-20T13:02:23.770Z,98025.13
2022-12-20T13:05:01.994Z,98009.72
2022-12-20T13:07:40.200Z,98012.16
2022-12-20T13:10:10.442Z,98010.16
2022-12-20T13:12:37.980Z,98011.97
2022-12-20T13:15:20.848Z,98006.41
2022-12-20T13:17:57.234Z,98008.19
2022-12-20T13:20:26.602Z,98014.47
2022-12-20T13:23:08.903Z,98006.09
2022-12-20T13:25:47.813Z,98004.44
2022-12-20T13:28:24.555Z,97992.63
2022-12-20T13:31:01.365Z,97994.75
2022-12-20T13:33:42.606Z,97984.59
2022-12-20T13:36:10.114Z,97979.00
2022-12-20T13:38:39.328Z,97990.00
2022-12-20T13:41:26.899Z,97982.59
2022-12-20T13:44:08.163Z,97967.53
2022-12-20T13:46:53.981Z,97952.94
2022-12-20T13:49:29.207Z,97945.91
2022-12-20T13:52:25.473Z,97951.97
2022-12-20T13:54:57.471Z,97941.47
2022-12-20T13:57:32.740Z,97947.19
2022-12-20T14:00:07.368Z,97946.38
2022-12-20T14:02:42.135Z,97938.84
2022-12-20T14:05:28.705Z,97933.75
2022-12-20T14:08:01.008Z,97929.50
2022-12-20T14:10:31.310Z,97926.00
2022-12-20T14:12:59.221Z,97922.41
2022-12-20T14:15:32.815Z,97932.41
2022-12-20T14:18:35.572Z,97933.75
2022-12-20T14:21:05.772Z,97924.38
2022-12-20T14:23:43.503Z,97940.78
2022-12-20T14:26:17.091Z,97935.03
2022-12-20T14:28:48.416Z,97936.84
2022-12-20T14:31:29.517Z,97940.97
2022-12-20T14:34:12.014Z,97940.44
2022-12-20T14:36:45.025Z,97925.88
2022-12-20T14:39:32.725Z,97933.75
2022-12-20T14:42:02.002Z,97919.13
2022-12-20T14:44:31.458Z,97922.75
2022-12-20T14:47:17.000Z,97921.13
2022-12-20T14:49:52.594Z,97923.28
2022-12-20T14:52:35.840Z,97912.59
2022-12-20T14:55:21.950Z,97896.34
2022-12-20T14:57:54.949Z,97900.78
2022-12-20T15:00:27.725Z,97895.69
2022-12-20T15:02:59.973Z,97892.91
2022-12-20T15:05:34.044Z,97892.25
2022-12-20T15:08:22.541Z,97890.44
2022-12-20T15:11:10.468Z,97897.16
2022-12-20T15:13:51.924Z,97894.22
2022-12-20T15:16:27.141Z,97874.69
2022-12-20T15:19:03.300Z,97881.41
2022-12-20T15:21:35.822Z,97881.09
2022-12-20T15:24:08.242Z,97886.34
2022-12-20T15:26:37.002Z,97888.00
2022-12-20T15:29:05.250Z,97888.00
2022-12-20T15:31:37.087Z,97880.94
2022-12-20T15:34:14.643Z,97883.06
2022-12-20T15:36:42.402Z,97877.50
2022-12-20T15:39:13.832Z,97898.16
2022-12-20T15:41:46.503Z,97897.66
2022-12-20T15:44:25.265Z,97897.81
2022-12-20T15:46:53.635Z,97886.81
2022-12-20T15:49:24.021Z,97887.97
2022-12-20T15:51:53.713Z,97908.59
2022-12-20T15:54:30.619Z,97926.66
2022-12-20T15:57:03.385Z,97927.63
2022-12-20T16:02:19.256Z,97916.94
2022-12-20T16:04:46.847Z,97922.84
2022-12-20T16:07:14.588Z,97927.31
2022-12-20T16:09:42.186Z,97921.09
2022-12-20T16:12:23.729Z,97919.63
2022-12-20T16:14:52.012Z,97908.28
2022-12-20T16:17:19.551Z,97904.34
2022-12-20T16:19:48.618Z,97911.09
2022-12-20T16:22:18.863Z,97908.47
2022-12-20T16:24:46.790Z,97914.41
2022-12-20T16:27:14.636Z,97912.59
2022-12-20T16:29:42.247Z,97910.28
2022-12-20T16:32:18.335Z,97907.31
2022-12-20T16:34:46.153Z,97892.22
2022-12-20T16:37:14.128Z,97899.44
2022-12-20T16:39:42.500Z,97913.56
2022-12-20T16:42:18.791Z,97907.31
2022-12-20T16:44:48.184Z,97906.66
2022-12-20T16:47:15.781Z,97898.59
2022-12-20T16:49:51.843Z,97892.53
2022-12-20T16:52:22.690Z,97881.03
2022-12-20T16:54:50.939Z,97887.25
2022-12-20T16:57:19.464Z,97876.72
2022-12-20T16:59:47.104Z,97885.81
2022-12-20T17:02:34.579Z,97900.91
2022-12-20T17:05:02.737Z,97891.72
2022-12-20T17:07:30.330Z,97903.53
2022-12-20T17:10:11.261Z,97916.66
2022-12-20T17:12:38.901Z,97912.69
2022-12-20T17:15:08.273Z,97920.56
2022-12-20T17:17:35.850Z,97917.47
2022-12-20T17:20:03.524Z,97909.25
2022-12-20T17:22:31.045Z,97912.56
2022-12-20T17:24:58.602Z,97901.38
2022-12-20T17:27:26.194Z,97896.47
2022-12-20T17:29:53.861Z,97874.63
2022-12-20T17:32:24.603Z,97860.69
2022-12-20T17:34:53.763Z,97871.38
2022-12-20T17:37:21.704Z,97865.28
2022-12-20T17:39:49.597Z,97873.81
2022-12-20T17:42:17.397Z,97901.72
2022-12-20T17:44:46.456Z,97914.69
2022-12-20T17:47:14.183Z,97895.78
2022-12-20T17:49:41.791Z,97889.25
2022-12-20T17:52:15.633Z,97882.84
2022-12-20T17:54:43.636Z,97881.03
2022-12-20T17:57:15.589Z,97845.91
2022-12-20T17:59:43.780Z,97863.66
2022-12-20T18:02:25.619Z,97853.63
2022-12-20T18:04:53.531Z,97861.22
2022-12-20T18:07:21.098Z,97847.25
2022-12-20T18:09:49.211Z,97857.13
2022-12-20T18:12:18.073Z,97850.72
2022-12-20T18:14:48.467Z,97836.09
2022-12-20T18:17:16.692Z,97823.78
2022-12-20T18:19:44.166Z,97816.88
2022-12-20T18:22:11.849Z,97829.84
2022-12-20T18:24:39.262Z,97825.72
2022-12-20T18:27:06.750Z,97820.91
2022-12-20T18:29:34.231Z,97823.72
2022-12-20T18:32:01.822Z,97826.47
2022-12-20T18:34:29.433Z,97830.09
2022-12-20T18:36:57.081Z,97821.56
2022-12-20T18:39:24.745Z,97790.81
2022-12-20T18:41:52.239Z,97805.13
2022-12-20T18:44:19.685Z,97805.78
2022-12-20T18:46:47.185Z,97798.50
2022-12-20T18:49:14.951Z,97806.13
2022-12-20T18:51:43.945Z,97808.38
2022-12-20T18:54:13.538Z,97795.50
2022-12-20T18:56:41.215Z,97808.66
2022-12-20T18:59:11.935Z,97810.66
2022-12-20T19:01:41.813Z,97805.00
2022-12-20T19:04:10.107Z,97805.00
2022-12-20T19:06:37.963Z,97784.78
2022-12-20T19:09:09.350Z,97776.72
2022-12-20T19:11:37.749Z,97778.72
2022-12-20T19:14:05.625Z,97784.03
2022-12-20T19:16:34.455Z,97783.84
2022-12-20T19:19:03.096Z,97793.34
2022-12-20T19:21:33.017Z,97803.25
2022-12-20T19:24:05.244Z,97796.97
2022-12-20T19:26:34.846Z,97800.72
2022-12-20T19:29:03.389Z,97802.34
2022-12-20T19:31:33.656Z,97784.44
2022-12-20T19:34:05.163Z,97784.97
2022-12-20T19:36:39.241Z,97772.28
2022-12-20T19:39:12.539Z,97790.66
2022-12-20T19:41:40.966Z,97795.72
2022-12-20T19:44:09.467Z,97804.56
2022-12-20T19:46:37.140Z,97808.13
2022-12-20T19:49:04.816Z,97799.06
2022-12-20T19:51:33.003Z,97805.16
2022-12-20T19:54:00.736Z,97801.28
2022-12-20T19:56:31.948Z,97794.56
2022-12-20T19:59:00.062Z,97785.97
2022-12-20T20:01:28.232Z,97779.31
2022-12-20T20:03:58.827Z,97780.41
2022-12-20T20:06:28.360Z,97772.41
2022-12-20T20:08:59.867Z,97766.56
2022-12-20T20:11:28.566Z,97784.63
2022-12-20T20:13:56.580Z,97792.31
2022-12-20T20:16:24.252Z,97788.25
2022-12-20T20:18:52.372Z,97783.81
2022-12-20T20:21:22.735Z,97781.06
2022-12-20T20:23:54.416Z,97787.28
2022-12-20T20:26:25.595Z,97789.13
2022-12-20T20:28:53.354Z,97796.88
2022-12-20T20:31:21.865Z,97790.63
2022-12-20T20:33:50.637Z,97774.72
2022-12-20T20:36:21.281Z,97793.06
2022-12-20T20:38:50.087Z,97819.34
2022-12-20T20:41:18.565Z,97815.91
2022-12-20T20:43:46.208Z,97803.28
2022-12-20T20:46:15.658Z,97802.28
2022-12-20T20:48:44.705Z,97801.00
2022-12-20T20:51:12.990Z,97794.91
2022-12-20T20:53:40.953Z,97809.03
2022-12-20T20:56:09.368Z,97795.47
2022-12-20T20:58:37.414Z,97781.22
2022-12-20T21:01:08.767Z,97792.41
2022-12-20T21:03:37.063Z,97792.75
2022-12-20T21:06:38.714Z,97787.84
2022-12-20T21:08:55.311Z,97777.94
2022-12-20T21:11:23.582Z,97778.00
2022-12-20T21:13:51.288Z,97756.00
2022-12-20T21:16:22.644Z,97764.19
2022-12-20T21:18:54.901Z,97763.66
2022-12-20T21:21:23.604Z,97765.31
2022-12-20T21:23:51.819Z,97764.97
2022-12-20T21:26:20.399Z,97737.41
2022-12-20T21:28:48.446Z,97755.91
2022-12-20T21:31:18.025Z,97748.72
2022-12-20T21:33:48.850Z,97750.97
2022-12-20T21:36:18.530Z,97763.47
2022-12-20T21:38:50.733Z,97773.94
2022-12-20T21:41:20.611Z,97775.22
2022-12-20T21:43:48.316Z,97762.00
2022-12-20T21:46:16.706Z,97769.00
2022-12-20T21:48:44.896Z,97774.94
2022-12-20T21:51:20.256Z,97769.22
2022-12-20T21:53:53.075Z,97772.03
2022-12-20T21:56:22.283Z,97772.56
2022-12-20T21:58:50.966Z,97772.03
2022-12-20T22:01:24.175Z,97762.16
2022-12-20T22:04:10.865Z,97756.88
2022-12-20T22:06:38.409Z,97764.28
2022-12-20T22:09:10.321Z,97744.78
2022-12-20T22:11:38.177Z,97755.75
2022-12-20T22:14:06.403Z,97757.84
2022-12-20T22:16:35.145Z,97755.97
2022-12-20T22:19:03.714Z,97771.19
2022-12-20T22:21:33.505Z,97747.44
2022-12-20T22:24:02.379Z,97755.97
2022-12-20T22:26:32.183Z,97756.78
2022-12-20T22:29:02.911Z,97757.09
2022-12-20T22:31:30.885Z,97761.34
2022-12-20T22:33:59.553Z,97771.78
2022-12-20T22:36:28.197Z,97762.75
2022-12-20T22:38:56.837Z,97753.56
2022-12-20T22:41:29.775Z,97759.28
2022-12-20T22:43:58.903Z,97758.28
2022-12-20T22:46:29.495Z,97758.28
2022-12-20T22:48:58.956Z,97751.22
2022-12-20T22:51:27.945Z,97755.16
2022-12-20T22:54:00.620Z,97744.78
2022-12-20T22:56:28.256Z,97742.34
2022-12-20T22:58:56.178Z,97742.50
2022-12-20T23:01:24.086Z,97734.31
2022-12-20T23:03:51.763Z,97731.56
2022-12-20T23:06:21.512Z,97742.41
2022-12-20T23:08:49.641Z,97737.34
2022-12-20T23:11:46.681Z,97732.13
2022-12-20T23:14:36.422Z,97730.50
2022-12-20T23:17:05.901Z,97736.63
2022-12-20T23:19:52.908Z,97730.44
2022-12-20T23:22:40.951Z,97724.22
2022-12-20T23:25:19.753Z,97716.88
2022-12-20T23:27:49.613Z,97703.59
2022-12-20T23:30:20.282Z,97702.91
2022-12-20T23:32:48.143Z,97690.47
2022-12-20T23:35:18.226Z,97697.00
2022-12-20T23:37:46.137Z,97699.78
2022-12-20T23:40:15.039Z,97693.34
2022-12-20T23:42:43.203Z,97685.78
2022-12-20T23:45:11.455Z,97669.19
2022-12-20T23:47:39.215Z,97673.78
2022-12-20T23:50:07.203Z,97671.47
2022-12-20T23:52:34.755Z,97668.75
2022-12-20T23:55:02.353Z,97657.91
2022-12-20T23:57:31.231Z,97657.56
2022-12-20T23:59:58.860Z,97652.44
